createdAt,value
2023-04-12T00:00:02.968Z,974.17
2023-04-12T00:01:03.104Z,974.09
2023-04-12T00:02:03.147Z,974.14
2023-04-12T00:03:03.274Z,973.98
2023-04-12T00:04:04.100Z,973.92
2023-04-12T00:05:03.271Z,973.86
2023-04-12T00:06:03.247Z,973.98
2023-04-12T00:07:03.197Z,973.95
2023-04-12T00:08:03.287Z,973.98
2023-04-12T00:09:03.179Z,974.01
2023-04-12T00:10:03.554Z,974.01
2023-04-12T00:11:03.252Z,973.89
2023-04-12T00:12:03.201Z,973.89
2023-04-12T00:13:03.135Z,973.89
2023-04-12T00:14:03.215Z,973.98
2023-04-12T00:15:03.265Z,973.87
2023-04-12T00:16:03.292Z,974.06
2023-04-12T00:17:03.306Z,973.86
2023-04-12T00:18:03.366Z,973.92
2023-04-12T00:19:03.331Z,973.81
2023-04-12T00:20:03.353Z,973.89
2023-04-12T00:21:03.491Z,973.87
2023-04-12T00:22:03.458Z,973.84
2023-04-12T00:23:03.575Z,973.73
2023-04-12T00:24:03.521Z,973.75
2023-04-12T00:25:03.679Z,973.70
2023-04-12T00:26:03.555Z,973.70
2023-04-12T00:27:03.567Z,973.67
2023-04-12T00:28:03.483Z,973.78
2023-04-12T00:29:03.562Z,973.67
2023-04-12T00:30:03.638Z,973.61
2023-04-12T00:31:03.741Z,973.76
2023-04-12T00:32:03.663Z,973.67
2023-04-12T00:33:03.677Z,973.51
2023-04-12T00:34:03.546Z,973.56
2023-04-12T00:35:03.582Z,973.62
2023-04-12T00:36:03.753Z,973.52
2023-04-12T00:37:03.659Z,973.43
2023-04-12T00:38:03.800Z,973.49
2023-04-12T00:39:03.725Z,973.54
2023-04-12T00:40:03.799Z,973.46
2023-04-12T00:41:03.946Z,973.52
2023-04-12T00:42:03.854Z,973.43
2023-04-12T00:43:03.030Z,973.43
2023-04-12T00:44:02.965Z,973.49
2023-04-12T00:45:03.000Z,973.41
2023-04-12T00:46:03.085Z,973.43
2023-04-12T00:47:03.153Z,973.46
2023-04-12T00:48:03.204Z,973.46
2023-04-12T00:49:03.224Z,973.35
2023-04-12T00:50:03.144Z,973.41
2023-04-12T00:51:03.550Z,973.49
2023-04-12T00:52:03.688Z,973.43
2023-04-12T00:53:03.572Z,973.46
2023-04-12T00:54:03.674Z,973.41
2023-04-12T00:55:03.680Z,973.46
2023-04-12T00:56:03.720Z,973.46
2023-04-12T00:57:03.775Z,973.38
2023-04-12T00:58:03.860Z,973.30
2023-04-12T00:59:03.824Z,973.24
2023-04-12T01:00:02.917Z,973.30
2023-04-12T01:01:03.091Z,973.24
2023-04-12T01:02:03.265Z,973.27
2023-04-12T01:03:03.449Z,973.35
2023-04-12T01:04:03.326Z,973.33
2023-04-12T01:05:03.313Z,973.19
2023-04-12T01:06:03.351Z,973.27
2023-04-12T01:07:03.402Z,973.33
2023-04-12T01:08:03.456Z,973.30
2023-04-12T01:09:03.409Z,973.25
2023-04-12T01:10:03.512Z,973.25
2023-04-12T01:11:03.625Z,973.19
2023-04-12T01:12:03.608Z,973.19
2023-04-12T01:13:03.563Z,973.30
2023-04-12T01:14:03.742Z,973.16
2023-04-12T01:15:03.783Z,973.41
2023-04-12T01:16:03.719Z,973.39
2023-04-12T01:17:03.811Z,973.13
2023-04-12T01:18:03.830Z,973.19
2023-04-12T01:19:03.806Z,973.16
2023-04-12T01:20:06.283Z,973.25
2023-04-12T01:21:03.831Z,973.16
2023-04-12T01:22:03.864Z,973.19
2023-04-12T01:23:02.912Z,973.19
2023-04-12T01:24:02.976Z,973.13
2023-04-12T01:25:03.880Z,973.19
2023-04-12T01:26:03.082Z,973.22
2023-04-12T01:27:03.099Z,973.16
2023-04-12T01:28:03.133Z,973.08
2023-04-12T01:29:03.171Z,973.02
2023-04-12T01:30:03.172Z,973.11
2023-04-12T01:31:03.209Z,973.05
2023-04-12T01:32:03.280Z,972.96
2023-04-12T01:33:03.423Z,972.96
2023-04-12T01:34:03.402Z,972.94
2023-04-12T01:35:03.450Z,972.91
2023-04-12T01:36:07.472Z,972.80
2023-04-12T01:37:03.561Z,972.83
2023-04-12T01:38:03.588Z,972.71
2023-04-12T01:39:03.673Z,972.77
2023-04-12T01:40:03.885Z,972.80
2023-04-12T01:41:03.798Z,972.82
2023-04-12T01:42:03.798Z,972.68
2023-04-12T01:43:03.926Z,972.71
2023-04-12T01:44:03.911Z,972.63
2023-04-12T01:45:02.993Z,972.66
2023-04-12T01:46:03.134Z,972.77
2023-04-12T01:47:03.173Z,972.71
2023-04-12T01:48:03.256Z,972.66
2023-04-12T01:49:03.108Z,972.63
2023-04-12T01:50:03.125Z,972.63
2023-04-12T01:51:03.187Z,972.55
2023-04-12T01:52:03.096Z,972.69
2023-04-12T01:53:03.180Z,972.60
2023-04-12T01:54:03.128Z,972.72
2023-04-12T01:55:03.210Z,972.52
2023-04-12T01:56:03.269Z,972.41
2023-04-12T01:57:03.141Z,972.55
2023-04-12T01:58:03.310Z,972.52
2023-04-12T01:59:03.255Z,972.36
2023-04-12T02:00:03.323Z,972.52
2023-04-12T02:01:03.541Z,972.47
2023-04-12T02:02:03.692Z,972.55
2023-04-12T02:03:03.859Z,972.47
2023-04-12T02:04:03.884Z,972.63
2023-04-12T02:05:03.665Z,972.39
2023-04-12T02:06:03.730Z,972.44
2023-04-12T02:07:03.884Z,972.47
2023-04-12T02:08:03.868Z,972.44
2023-04-12T02:09:03.811Z,972.33
2023-04-12T02:10:03.972Z,972.44
2023-04-12T02:11:03.044Z,972.47
2023-04-12T02:12:02.907Z,972.30
2023-04-12T02:13:03.150Z,972.30
2023-04-12T02:14:03.115Z,972.55
2023-04-12T02:15:03.292Z,972.30
2023-04-12T02:16:03.363Z,972.33
2023-04-12T02:17:03.702Z,972.33
2023-04-12T02:18:03.723Z,972.39
2023-04-12T02:19:03.435Z,972.24
2023-04-12T02:20:03.488Z,972.22
2023-04-12T02:21:03.617Z,972.22
2023-04-12T02:22:03.705Z,972.05
2023-04-12T02:23:03.657Z,972.25
2023-04-12T02:24:03.887Z,972.13
2023-04-12T02:25:03.848Z,972.13
2023-04-12T02:26:03.895Z,972.08
2023-04-12T02:27:03.777Z,971.97
2023-04-12T02:28:03.903Z,972.08
2023-04-12T02:29:03.940Z,971.99
2023-04-12T02:30:03.014Z,971.97
2023-04-12T02:31:03.047Z,971.94
2023-04-12T02:32:02.964Z,971.99
2023-04-12T02:33:03.110Z,971.97
2023-04-12T02:34:03.063Z,971.88
2023-04-12T02:35:03.051Z,972.02
2023-04-12T02:36:03.155Z,971.99
2023-04-12T02:37:03.177Z,971.83
2023-04-12T02:38:03.177Z,971.96
2023-04-12T02:39:03.185Z,971.88
2023-04-12T02:40:03.184Z,971.96
2023-04-12T02:41:03.369Z,971.85
2023-04-12T02:42:03.427Z,971.80
2023-04-12T02:43:03.572Z,971.91
2023-04-12T02:44:03.496Z,971.77
2023-04-12T02:45:03.430Z,971.80
2023-04-12T02:46:03.533Z,971.72
2023-04-12T02:47:03.439Z,971.80
2023-04-12T02:48:03.645Z,971.85
2023-04-12T02:49:03.556Z,971.90
2023-04-12T02:50:03.533Z,971.77
2023-04-12T02:51:03.587Z,971.77
2023-04-12T02:52:03.506Z,971.80
2023-04-12T02:53:03.499Z,971.75
2023-04-12T02:54:03.493Z,971.66
2023-04-12T02:55:03.580Z,971.63
2023-04-12T02:56:06.668Z,971.69
2023-04-12T02:57:03.630Z,971.69
2023-04-12T02:58:03.627Z,971.41
2023-04-12T02:59:03.499Z,971.52
2023-04-12T03:00:03.659Z,971.55
2023-04-12T03:01:03.661Z,971.55
2023-04-12T03:02:04.176Z,971.38
2023-04-12T03:03:04.031Z,971.32
2023-04-12T03:04:04.025Z,971.44
2023-04-12T03:05:03.760Z,971.38
2023-04-12T03:06:03.895Z,971.35
2023-04-12T03:07:03.886Z,971.10
2023-04-12T03:08:03.768Z,971.32
2023-04-12T03:09:03.884Z,971.41
2023-04-12T03:10:03.854Z,971.35
2023-04-12T03:11:03.868Z,971.43
2023-04-12T03:12:02.945Z,971.38
2023-04-12T03:13:03.040Z,971.32
2023-04-12T03:14:02.966Z,971.21
2023-04-12T03:15:03.081Z,971.29
2023-04-12T03:16:03.278Z,971.21
2023-04-12T03:17:03.150Z,971.29
2023-04-12T03:18:03.329Z,971.46
2023-04-12T03:19:03.171Z,971.37
2023-04-12T03:20:03.214Z,971.26
2023-04-12T03:21:03.391Z,971.52
2023-04-12T03:22:03.446Z,971.26
2023-04-12T03:23:03.541Z,971.32
2023-04-12T03:24:03.593Z,971.32
2023-04-12T03:25:03.661Z,971.46
2023-04-12T03:26:03.596Z,971.43
2023-04-12T03:27:03.605Z,971.29
2023-04-12T03:28:03.581Z,971.32
2023-04-12T03:29:03.609Z,971.40
2023-04-12T03:30:03.709Z,971.34
2023-04-12T03:31:03.815Z,971.40
2023-04-12T03:32:03.795Z,971.40
2023-04-12T03:33:03.909Z,971.32
2023-04-12T03:34:03.758Z,971.34
2023-04-12T03:35:03.727Z,971.34
2023-04-12T03:36:03.832Z,971.17
2023-04-12T03:37:02.966Z,971.20
2023-04-12T03:38:03.030Z,971.28
2023-04-12T03:39:03.006Z,971.23
2023-04-12T03:40:03.080Z,971.20
2023-04-12T03:41:03.227Z,971.17
2023-04-12T03:42:03.290Z,971.17
2023-04-12T03:43:03.245Z,971.31
2023-04-12T03:44:03.335Z,971.20
2023-04-12T03:45:03.710Z,971.25
2023-04-12T03:46:03.705Z,971.20
2023-04-12T03:47:03.674Z,971.09
2023-04-12T03:48:03.996Z,971.06
2023-04-12T03:49:03.800Z,971.03
2023-04-12T03:51:03.796Z,971.09
2023-04-12T03:52:03.809Z,970.95
2023-04-12T03:53:03.894Z,970.98
2023-04-12T03:54:03.877Z,970.89
2023-04-12T03:55:02.924Z,971.00
2023-04-12T03:56:03.056Z,970.95
2023-04-12T03:57:02.948Z,970.78
2023-04-12T03:58:03.118Z,970.83
2023-04-12T03:59:03.118Z,970.83
2023-04-12T04:00:03.363Z,970.80
2023-04-12T04:01:03.286Z,970.74
2023-04-12T04:02:03.336Z,970.74
2023-04-12T04:03:03.820Z,970.77
2023-04-12T04:04:04.393Z,970.63
2023-04-12T04:05:03.495Z,970.54
2023-04-12T04:06:03.489Z,970.57
2023-04-12T04:07:03.632Z,970.43
2023-04-12T04:08:03.598Z,970.51
2023-04-12T04:09:03.698Z,970.57
2023-04-12T04:10:03.759Z,970.48
2023-04-12T04:11:03.762Z,970.56
2023-04-12T04:12:03.823Z,970.56
2023-04-12T04:13:03.970Z,970.45
2023-04-12T04:14:03.864Z,970.38
2023-04-12T04:15:03.859Z,970.40
2023-04-12T04:16:02.997Z,970.37
2023-04-12T04:17:03.009Z,970.50
2023-04-12T04:18:03.134Z,970.50
2023-04-12T04:19:03.118Z,970.40
2023-04-12T04:20:03.057Z,970.44
2023-04-12T04:21:03.074Z,970.37
2023-04-12T04:22:03.193Z,970.50
2023-04-12T04:23:03.267Z,970.40
2023-04-12T04:24:03.249Z,970.34
2023-04-12T04:25:03.873Z,970.42
2023-04-12T04:26:03.684Z,970.39
2023-04-12T04:27:03.722Z,970.17
2023-04-12T04:28:03.774Z,970.34
2023-04-12T04:29:03.839Z,970.33
2023-04-12T04:30:03.788Z,970.25
2023-04-12T04:31:03.837Z,970.25
2023-04-12T04:32:03.144Z,970.42
2023-04-12T04:33:03.426Z,970.33
2023-04-12T04:34:03.196Z,970.42
2023-04-12T04:35:03.122Z,970.36
2023-04-12T04:36:03.152Z,970.30
2023-04-12T04:37:03.292Z,970.30
2023-04-12T04:38:03.234Z,970.36
2023-04-12T04:39:03.235Z,970.24
2023-04-12T04:40:03.353Z,970.27
2023-04-12T04:41:03.333Z,970.36
2023-04-12T04:42:03.350Z,970.30
2023-04-12T04:43:03.433Z,970.27
2023-04-12T04:44:03.517Z,970.33
2023-04-12T04:45:03.744Z,970.41
2023-04-12T04:46:03.896Z,970.38
2023-04-12T04:47:03.025Z,970.38
2023-04-12T04:48:03.009Z,970.35
2023-04-12T04:49:02.952Z,970.35
2023-04-12T04:50:03.083Z,970.45
2023-04-12T04:51:03.183Z,970.48
2023-04-12T04:52:03.046Z,970.54
2023-04-12T04:53:03.131Z,970.38
2023-04-12T04:54:03.257Z,970.45
2023-04-12T04:55:08.025Z,970.40
2023-04-12T04:56:03.511Z,970.42
2023-04-12T04:57:03.419Z,970.53
2023-04-12T04:58:03.452Z,970.38
2023-04-12T04:59:03.530Z,970.38
2023-04-12T05:00:03.069Z,970.45
2023-04-12T05:01:03.169Z,970.35
2023-04-12T05:02:03.246Z,970.38
2023-04-12T05:03:03.499Z,970.37
2023-04-12T05:04:03.377Z,970.42
2023-04-12T05:05:03.329Z,970.29
2023-04-12T05:06:03.378Z,970.29
2023-04-12T05:07:03.276Z,970.32
2023-04-12T05:08:03.480Z,970.26
2023-04-12T05:09:03.473Z,970.29
2023-04-12T05:10:03.614Z,970.23
2023-04-12T05:11:03.664Z,970.34
2023-04-12T05:12:03.652Z,970.40
2023-04-12T05:13:03.751Z,970.37
2023-04-12T05:14:03.576Z,970.25
2023-04-12T05:15:11.423Z,970.23
2023-04-12T05:16:03.771Z,970.34
2023-04-12T05:17:03.794Z,970.36
2023-04-12T05:18:03.974Z,970.31
2023-04-12T05:19:03.881Z,970.25
2023-04-12T05:20:03.829Z,970.28
2023-04-12T05:21:03.849Z,970.19
2023-04-12T05:22:03.856Z,970.19
2023-04-12T05:23:03.838Z,970.25
2023-04-12T05:24:03.898Z,970.22
2023-04-12T05:25:03.941Z,970.22
2023-04-12T05:26:03.874Z,970.27
2023-04-12T05:27:03.845Z,970.39
2023-04-12T05:28:03.874Z,970.27
2023-04-12T05:29:03.828Z,970.30
2023-04-12T05:30:02.992Z,970.41
2023-04-12T05:31:03.062Z,970.19
2023-04-12T05:32:02.998Z,970.24
2023-04-12T05:33:03.234Z,970.33
2023-04-12T05:34:03.053Z,970.19
2023-04-12T05:35:03.034Z,970.35
2023-04-12T05:36:03.075Z,970.24
2023-04-12T05:37:03.115Z,970.15
2023-04-12T05:38:03.231Z,970.04
2023-04-12T05:39:03.193Z,970.04
2023-04-12T05:40:03.054Z,969.98
2023-04-12T05:41:03.119Z,969.98
2023-04-12T05:42:03.173Z,969.91
2023-04-12T05:43:03.183Z,969.91
2023-04-12T05:44:03.178Z,969.71
2023-04-12T05:45:03.142Z,969.88
2023-04-12T05:46:03.258Z,969.90
2023-04-12T05:47:03.178Z,969.76
2023-04-12T05:48:03.319Z,969.76
2023-04-12T05:49:03.221Z,969.81
2023-04-12T05:50:05.267Z,969.87
2023-04-12T05:51:03.081Z,969.78
2023-04-12T05:52:03.088Z,969.67
2023-04-12T05:53:03.120Z,969.75
2023-04-12T05:54:03.203Z,969.81
2023-04-12T05:55:03.055Z,969.66
2023-04-12T05:56:03.142Z,969.80
2023-04-12T05:57:03.104Z,969.77
2023-04-12T05:58:03.110Z,969.68
2023-04-12T05:59:03.178Z,969.54
2023-04-12T06:00:03.431Z,969.62
2023-04-12T06:01:03.395Z,969.64
2023-04-12T06:02:03.358Z,969.61
2023-04-12T06:03:03.629Z,969.58
2023-04-12T06:04:03.662Z,969.61
2023-04-12T06:05:04.155Z,969.66
2023-04-12T06:06:03.413Z,969.57
2023-04-12T06:07:03.421Z,969.60
2023-04-12T06:08:03.530Z,969.54
2023-04-12T06:09:03.665Z,969.64
2023-04-12T06:10:03.699Z,969.44
2023-04-12T06:11:03.737Z,969.61
2023-04-12T06:12:03.716Z,969.52
2023-04-12T06:13:03.714Z,969.57
2023-04-12T06:14:03.831Z,969.60
2023-04-12T06:15:03.722Z,969.59
2023-04-12T06:16:04.060Z,969.56
2023-04-12T06:17:03.755Z,969.76
2023-04-12T06:18:04.007Z,969.62
2023-04-12T06:19:03.989Z,969.67
2023-04-12T06:20:03.959Z,969.55
2023-04-12T06:21:03.898Z,969.61
2023-04-12T06:22:02.999Z,969.64
2023-04-12T06:23:03.043Z,969.61
2023-04-12T06:24:04.005Z,969.63
2023-04-12T06:25:04.098Z,969.52
2023-04-12T06:26:03.880Z,969.66
2023-04-12T06:27:03.092Z,969.77
2023-04-12T06:28:03.031Z,969.74
2023-04-12T06:29:03.146Z,969.71
2023-04-12T06:30:03.160Z,969.74
2023-04-12T06:31:03.268Z,969.76
2023-04-12T06:32:03.109Z,969.59
2023-04-12T06:33:03.223Z,969.73
2023-04-12T06:34:03.577Z,969.59
2023-04-12T06:35:03.374Z,969.61
2023-04-12T06:36:03.570Z,969.49
2023-04-12T06:37:03.433Z,969.49
2023-04-12T06:38:03.549Z,969.55
2023-04-12T06:39:03.661Z,969.49
2023-04-12T06:40:03.607Z,969.51
2023-04-12T06:41:04.633Z,969.57
2023-04-12T06:42:03.684Z,969.51
2023-04-12T06:43:03.819Z,969.42
2023-04-12T06:44:02.960Z,969.42
2023-04-12T06:45:02.966Z,969.39
2023-04-12T06:46:03.032Z,969.50
2023-04-12T06:47:03.200Z,969.39
2023-04-12T06:48:03.218Z,969.47
2023-04-12T06:49:04.070Z,969.41
2023-04-12T06:50:03.433Z,969.46
2023-04-12T06:51:03.280Z,969.46
2023-04-12T06:52:03.288Z,969.49
2023-04-12T06:53:03.363Z,969.43
2023-04-12T06:54:03.310Z,969.46
2023-04-12T06:55:03.392Z,969.26
2023-04-12T06:56:03.345Z,969.40
2023-04-12T06:57:03.336Z,969.42
2023-04-12T06:58:03.409Z,969.42
2023-04-12T06:59:03.320Z,969.42
2023-04-12T07:00:03.363Z,969.44
2023-04-12T07:01:03.580Z,969.33
2023-04-12T07:02:03.490Z,969.35
2023-04-12T07:03:03.595Z,969.38
2023-04-12T07:04:04.114Z,969.40
2023-04-12T07:05:03.522Z,969.18
2023-04-12T07:06:24.074Z,969.26
2023-04-12T07:07:03.526Z,969.20
2023-04-12T07:08:03.472Z,969.28
2023-04-12T07:09:03.550Z,969.25
2023-04-12T07:10:03.502Z,969.25
2023-04-12T07:11:21.254Z,969.33
2023-04-12T07:12:03.553Z,969.30
2023-04-12T07:13:03.485Z,969.21
2023-04-12T07:14:03.530Z,969.12
2023-04-12T07:15:03.514Z,969.26
2023-04-12T07:16:03.543Z,969.34
2023-04-12T07:17:03.521Z,969.28
2023-04-12T07:18:03.646Z,969.25
2023-04-12T07:19:03.353Z,969.19
2023-04-12T07:20:03.402Z,969.33
2023-04-12T07:21:03.450Z,969.21
2023-04-12T07:22:03.487Z,969.07
2023-04-12T07:23:03.663Z,969.01
2023-04-12T07:24:03.428Z,969.01
2023-04-12T07:25:03.478Z,969.15
2023-04-12T07:26:03.543Z,969.14
2023-04-12T07:27:03.531Z,969.20
2023-04-12T07:28:03.442Z,969.05
2023-04-12T07:29:03.504Z,969.08
2023-04-12T07:30:03.662Z,969.07
2023-04-12T07:31:03.632Z,969.13
2023-04-12T07:32:03.749Z,969.01
2023-04-12T07:33:20.068Z,968.87
2023-04-12T07:34:04.310Z,969.09
2023-04-12T07:35:03.905Z,969.09
2023-04-12T07:36:04.083Z,969.06
2023-04-12T07:37:02.961Z,969.14
2023-04-12T07:38:03.021Z,969.03
2023-04-12T07:39:03.227Z,969.17
2023-04-12T07:40:03.210Z,968.94
2023-04-12T07:41:03.044Z,968.99
2023-04-12T07:42:03.151Z,968.90
2023-04-12T07:43:03.166Z,968.87
2023-04-12T07:44:03.296Z,968.93
2023-04-12T07:45:03.113Z,968.98
2023-04-12T07:46:03.211Z,969.03
2023-04-12T07:47:03.188Z,968.97
2023-04-12T07:48:03.438Z,969.03
2023-04-12T07:49:03.289Z,968.97
2023-04-12T07:50:03.436Z,968.99
2023-04-12T07:51:03.470Z,968.88
2023-04-12T07:52:03.575Z,968.88
2023-04-12T07:53:03.639Z,969.04
2023-04-12T07:54:03.483Z,968.96
2023-04-12T07:55:03.778Z,968.99
2023-04-12T07:56:03.689Z,968.98
2023-04-12T07:57:03.803Z,969.04
2023-04-12T07:58:03.718Z,969.04
2023-04-12T07:59:03.721Z,969.09
2023-04-12T08:00:03.736Z,969.09
2023-04-12T08:01:03.738Z,968.98
2023-04-12T08:02:04.129Z,969.09
2023-04-12T08:03:04.018Z,969.15
2023-04-12T08:04:04.733Z,969.01
2023-04-12T08:05:03.811Z,969.06
2023-04-12T08:06:03.840Z,969.09
2023-04-12T08:07:03.835Z,968.97
2023-04-12T08:08:03.970Z,969.03
2023-04-12T08:09:03.891Z,968.94
2023-04-12T08:10:02.981Z,968.82
2023-04-12T08:11:03.992Z,968.91
2023-04-12T08:12:03.913Z,968.82
2023-04-12T08:13:03.963Z,968.98
2023-04-12T08:14:03.974Z,968.81
2023-04-12T08:15:03.896Z,968.72
2023-04-12T08:16:03.118Z,968.86
2023-04-12T08:17:03.065Z,968.80
2023-04-12T08:18:03.272Z,968.82
2023-04-12T08:19:03.217Z,968.71
2023-04-12T08:20:03.321Z,968.87
2023-04-12T08:21:03.648Z,968.81
2023-04-12T08:22:03.681Z,968.84
2023-04-12T08:23:03.545Z,968.87
2023-04-12T08:24:03.618Z,968.98
2023-04-12T08:25:03.678Z,968.84
2023-04-12T08:26:04.640Z,969.01
2023-04-12T08:27:03.496Z,968.90
2023-04-12T08:28:03.413Z,969.13
2023-04-12T08:29:03.692Z,968.91
2023-04-12T08:30:03.766Z,968.94
2023-04-12T08:31:03.961Z,968.91
2023-04-12T08:32:03.003Z,968.88
2023-04-12T08:33:03.066Z,968.91
2023-04-12T08:34:03.063Z,968.85
2023-04-12T08:35:03.291Z,968.88
2023-04-12T08:36:03.466Z,968.91
2023-04-12T08:37:03.274Z,968.91
2023-04-12T08:38:03.252Z,968.94
2023-04-12T08:39:03.281Z,968.88
2023-04-12T08:40:03.397Z,968.69
2023-04-12T08:41:03.402Z,968.74
2023-04-12T08:42:03.478Z,968.74
2023-04-12T08:43:03.415Z,968.69
2023-04-12T08:44:03.369Z,968.60
2023-04-12T08:45:03.369Z,968.71
2023-04-12T08:46:03.409Z,968.66
2023-04-12T08:47:03.502Z,968.82
2023-04-12T08:48:03.962Z,968.63
2023-04-12T08:49:03.842Z,968.51
2023-04-12T08:50:03.966Z,968.63
2023-04-12T08:51:03.844Z,968.69
2023-04-12T08:52:02.934Z,968.76
2023-04-12T08:53:03.133Z,968.66
2023-04-12T08:54:03.140Z,968.63
2023-04-12T08:55:03.306Z,968.74
2023-04-12T08:56:03.302Z,968.69
2023-04-12T08:57:03.378Z,968.71
2023-04-12T08:58:03.390Z,968.73
2023-04-12T08:59:03.326Z,968.54
2023-04-12T09:00:03.398Z,968.73
2023-04-12T09:01:03.405Z,968.60
2023-04-12T09:02:03.649Z,968.73
2023-04-12T09:03:03.871Z,968.63
2023-04-12T09:04:04.791Z,968.71
2023-04-12T09:05:04.004Z,968.51
2023-04-12T09:06:03.701Z,968.54
2023-04-12T09:07:03.792Z,968.51
2023-04-12T09:08:03.755Z,968.57
2023-04-12T09:09:04.323Z,968.40
2023-04-12T09:10:03.926Z,968.62
2023-04-12T09:11:03.806Z,968.54
2023-04-12T09:12:03.888Z,968.62
2023-04-12T09:13:02.942Z,968.48
2023-04-12T09:14:03.472Z,968.31
2023-04-12T09:15:03.059Z,968.53
2023-04-12T09:16:03.179Z,968.25
2023-04-12T09:17:03.327Z,968.39
2023-04-12T09:18:03.323Z,968.30
2023-04-12T09:19:03.219Z,968.24
2023-04-12T09:20:03.363Z,968.15
2023-04-12T09:21:03.324Z,968.10
2023-04-12T09:22:03.473Z,968.21
2023-04-12T09:23:03.528Z,968.18
2023-04-12T09:24:03.555Z,968.15
2023-04-12T09:25:03.743Z,968.09
2023-04-12T09:26:03.661Z,968.09
2023-04-12T09:27:03.839Z,968.12
2023-04-12T09:28:03.788Z,968.03
2023-04-12T09:29:03.806Z,967.97
2023-04-12T09:30:03.842Z,968.03
2023-04-12T09:31:02.992Z,967.80
2023-04-12T09:32:03.358Z,967.85
2023-04-12T09:33:03.183Z,967.88
2023-04-12T09:34:03.093Z,967.65
2023-04-12T09:35:03.249Z,967.73
2023-04-12T09:36:03.264Z,967.82
2023-04-12T09:37:03.356Z,967.70
2023-04-12T09:38:03.242Z,967.59
2023-04-12T09:39:03.374Z,967.61
2023-04-12T09:40:03.318Z,967.53
2023-04-12T09:41:03.258Z,967.45
2023-04-12T09:42:03.372Z,967.62
2023-04-12T09:43:03.451Z,967.57
2023-04-12T09:44:03.280Z,967.59
2023-04-12T09:45:03.558Z,967.39
2023-04-12T09:46:03.657Z,967.45
2023-04-12T09:47:03.537Z,967.42
2023-04-12T09:48:03.667Z,967.32
2023-04-12T09:49:03.685Z,967.26
2023-04-12T09:50:03.543Z,967.43
2023-04-12T09:51:03.506Z,967.43
2023-04-12T09:52:03.584Z,967.15
2023-04-12T09:53:03.509Z,967.15
2023-04-12T09:54:03.559Z,967.32
2023-04-12T09:55:03.534Z,967.10
2023-04-12T09:56:03.461Z,967.19
2023-04-12T09:57:03.554Z,967.13
2023-04-12T09:58:03.471Z,967.11
2023-04-12T09:59:03.703Z,967.08
2023-04-12T10:00:03.647Z,967.11
2023-04-12T10:01:03.745Z,967.11
2023-04-12T10:02:03.911Z,966.98
2023-04-12T10:03:04.482Z,966.95
2023-04-12T10:04:05.198Z,966.96
2023-04-12T10:05:04.228Z,967.01
2023-04-12T10:06:03.010Z,966.99
2023-04-12T10:07:03.034Z,966.88
2023-04-12T10:08:03.079Z,966.77
2023-04-12T10:09:03.184Z,966.83
2023-04-12T10:10:03.152Z,966.86
2023-04-12T10:11:03.207Z,966.77
2023-04-12T10:12:03.102Z,966.97
2023-04-12T10:13:03.073Z,966.83
2023-04-12T10:14:03.424Z,966.83
2023-04-12T10:15:03.206Z,966.84
2023-04-12T10:16:03.304Z,966.75
2023-04-12T10:17:03.359Z,966.87
2023-04-12T10:18:03.606Z,966.79
2023-04-12T10:19:03.495Z,966.65
2023-04-12T10:20:03.867Z,966.68
2023-04-12T10:21:03.001Z,966.85
2023-04-12T10:22:03.193Z,966.63
2023-04-12T10:23:03.251Z,966.63
2023-04-12T10:24:03.420Z,966.65
2023-04-12T10:25:03.567Z,966.57
2023-04-12T10:26:03.393Z,966.29
2023-04-12T10:27:03.453Z,966.49
2023-04-12T10:28:03.491Z,966.35
2023-04-12T10:29:03.500Z,966.38
2023-04-12T10:30:03.549Z,966.30
2023-04-12T10:31:03.517Z,966.33
2023-04-12T10:32:03.655Z,966.08
2023-04-12T10:33:03.872Z,966.16
2023-04-12T10:34:03.660Z,966.22
2023-04-12T10:35:03.566Z,966.08
2023-04-12T10:36:03.757Z,966.14
2023-04-12T10:37:03.631Z,966.11
2023-04-12T10:38:03.853Z,965.95
2023-04-12T10:39:03.940Z,966.07
2023-04-12T10:40:03.982Z,965.90
2023-04-12T10:41:03.892Z,965.75
2023-04-12T10:42:03.885Z,965.87
2023-04-12T10:43:03.799Z,965.73
2023-04-12T10:44:04.645Z,965.79
2023-04-12T10:45:03.633Z,965.79
2023-04-12T10:46:03.684Z,965.55
2023-04-12T10:47:03.869Z,965.47
2023-04-12T10:48:03.707Z,965.52
2023-04-12T10:49:03.812Z,965.39
2023-04-12T10:50:03.734Z,965.50
2023-04-12T10:51:03.715Z,965.39
2023-04-12T10:52:03.835Z,965.39
2023-04-12T10:53:03.945Z,965.40
2023-04-12T10:54:03.827Z,965.26
2023-04-12T10:55:03.951Z,965.15
2023-04-12T10:56:03.972Z,965.32
2023-04-12T10:57:03.849Z,965.18
2023-04-12T10:58:03.302Z,965.04
2023-04-12T10:59:04.384Z,965.13
2023-04-12T11:00:03.365Z,965.10
2023-04-12T11:01:03.556Z,965.24
2023-04-12T11:02:03.854Z,965.13
2023-04-12T11:03:03.999Z,965.10
2023-04-12T11:04:04.002Z,965.10
2023-04-12T11:05:03.829Z,965.16
2023-04-12T11:06:26.849Z,965.10
2023-04-12T11:07:03.287Z,965.24
2023-04-12T11:08:03.316Z,965.25
2023-04-12T11:09:03.441Z,965.16
2023-04-12T11:10:03.465Z,965.27
2023-04-12T11:11:03.650Z,965.04
2023-04-12T11:12:03.635Z,965.08
2023-04-12T11:13:03.748Z,965.25
2023-04-12T11:14:03.756Z,965.05
2023-04-12T11:15:03.703Z,965.05
2023-04-12T11:16:03.903Z,965.11
2023-04-12T11:17:03.994Z,965.08
2023-04-12T11:18:04.056Z,965.08
2023-04-12T11:19:03.222Z,965.08
2023-04-12T11:20:03.100Z,965.05
2023-04-12T11:21:03.232Z,964.99
2023-04-12T11:22:03.205Z,965.10
2023-04-12T11:23:03.088Z,965.08
2023-04-12T11:24:03.221Z,965.08
2023-04-12T11:25:03.222Z,965.08
2023-04-12T11:26:03.321Z,965.10
2023-04-12T11:27:03.141Z,965.16
2023-04-12T11:28:14.069Z,965.13
2023-04-12T11:29:03.315Z,965.24
2023-04-12T11:30:03.272Z,965.04
2023-04-12T11:31:03.281Z,965.16
2023-04-12T11:32:03.293Z,965.15
2023-04-12T11:33:03.339Z,965.18
2023-04-12T11:34:03.856Z,965.18
2023-04-12T11:35:04.053Z,965.07
2023-04-12T11:36:02.987Z,965.21
2023-04-12T11:37:02.991Z,965.16
2023-04-12T11:38:03.162Z,965.16
2023-04-12T11:39:03.082Z,965.22
2023-04-12T11:40:03.189Z,965.19
2023-04-12T11:41:03.089Z,965.02
2023-04-12T11:42:03.116Z,965.16
2023-04-12T11:43:03.144Z,965.02
2023-04-12T11:44:03.037Z,965.05
2023-04-12T11:45:16.919Z,965.07
2023-04-12T11:46:03.119Z,965.10
2023-04-12T11:47:03.082Z,964.99
2023-04-12T11:48:03.203Z,965.15
2023-04-12T11:49:03.286Z,965.01
2023-04-12T11:50:03.283Z,965.15
2023-04-12T11:51:12.883Z,965.06
2023-04-12T11:52:03.218Z,965.03
2023-04-12T11:53:03.108Z,965.09
2023-04-12T11:54:03.184Z,965.00
2023-04-12T11:55:03.339Z,964.97
2023-04-12T11:56:03.166Z,964.99
2023-04-12T11:57:06.037Z,965.02
2023-04-12T11:58:03.353Z,964.93
2023-04-12T11:59:03.484Z,964.93
2023-04-12T12:00:03.426Z,964.98
2023-04-12T12:01:03.606Z,964.95
2023-04-12T12:02:23.164Z,964.92
2023-04-12T12:03:08.870Z,964.79
2023-04-12T12:04:05.314Z,964.83
2023-04-12T12:05:04.562Z,964.70
2023-04-12T12:06:04.491Z,964.86
2023-04-12T12:07:04.189Z,964.83
2023-04-12T12:08:03.783Z,964.78
2023-04-12T12:09:03.844Z,964.80
2023-04-12T12:10:03.866Z,964.80
2023-04-12T12:11:08.921Z,964.71
2023-04-12T12:12:03.854Z,964.74
2023-04-12T12:13:03.864Z,964.90
2023-04-12T12:14:03.793Z,964.87
2023-04-12T12:15:03.979Z,964.79
2023-04-12T12:16:03.175Z,964.50
2023-04-12T12:17:03.021Z,964.69
2023-04-12T12:18:03.120Z,964.61
2023-04-12T12:19:03.009Z,964.77
2023-04-12T12:20:03.046Z,964.71
2023-04-12T12:21:03.150Z,964.66
2023-04-12T12:22:03.123Z,964.65
2023-04-12T12:23:03.086Z,964.62
2023-04-12T12:24:03.176Z,964.53
2023-04-12T12:25:03.206Z,964.53
2023-04-12T12:26:19.458Z,964.58
2023-04-12T12:27:03.276Z,964.58
2023-04-12T12:28:03.375Z,964.64
2023-04-12T12:29:03.331Z,964.50